F/V Si — FGYP — position and weather

sailwx.info

Track history (hours):
 
Tides and Currents Weather Stations Pressure Air Temp Water Temp Dewpoint Dewpoint Depression Visibility Wind Speed Wind Dir Waves Ship Positions

F/V Si

Last reported at 2018-Jun-18 01:09 UTC. Time now 2018-Jun-18 02:10 UTC.
Position N 44°30' W 001°55'.

Type: Fishing. MMSI: 227442000.

Date/timePositionNaut miles runAvg speedWind from/ knotsBaromVisibWave heightAir tempDewpointWater temp
2018-Jun-18 01:09N 44°30' W 001°55'0 0.7
2018-Jun-18 00:59N 44°30' W 001°56'0 0.7
2018-Jun-18 00:27N 44°30' W 001°56'0 0.6
2018-Jun-18 00:01N 44°30' W 001°56'0 0.6
2018-Jun-17 23:27N 44°29' W 001°57'0 0.4
2018-Jun-17 23:00N 44°29' W 001°57'0 0.3
2018-Jun-17 22:30N 44°29' W 001°57'0 0.2
2018-Jun-17 21:54N 44°29' W 001°57'0 0.3
2018-Jun-17 21:23N 44°30' W 001°57'0 0.4
2018-Jun-17 20:15N 44°30' W 001°57'4 2.6
2018-Jun-17 18:54N 44°27' W 001°57'0 0.6
2018-Jun-17 18:28N 44°27' W 001°57'0 0.7
2018-Jun-17 17:57N 44°27' W 001°57'1 2.4
2018-Jun-17 17:25N 44°28' W 001°58'0 0.7
2018-Jun-17 16:51N 44°28' W 001°58'1 1.5
2018-Jun-17 16:28N 44°28' W 001°57'10 1.7
2018-Jun-17 10:47N 44°38' W 002°01'3 1.3
2018-Jun-17 08:37N 44°35' W 002°03'0 1.3
2018-Jun-17 08:30N 44°35' W 002°03'4 0.1
2018-Jun-16 06:20N 44°38' W 001°60'0 1.5
2018-Jun-16 06:00N 44°37' W 002°00'16 0.7
2018-Jun-15 09:01N 44°40' W 001°39'0 8.1
2018-Jun-15 09:00N 44°40' W 001°38'4 7.9
2018-Jun-15 08:30N 44°38' W 001°33'4 7.8
2018-Jun-15 08:00N 44°37' W 001°28'4 8.0
2018-Jun-15 07:30N 44°36' W 001°23'4 8.1
2018-Jun-15 07:00N 44°34' W 001°18'4 8.4
2018-Jun-15 06:30N 44°38' W 001°14'4 8.5
2018-Jun-15 06:00N 44°40' W 001°09'1 1.4
2018-Jun-15 05:31N 44°39' W 001°09'0 0.0
2018-Jun-15 05:00N 44°39' W 001°09'0 0.0
2018-Jun-15 04:31N 44°39' W 001°09'0 0.0
2018-Jun-15 04:00N 44°39' W 001°09'0 0.0
2018-Jun-15 03:30N 44°39' W 001°09'0 0.0
2018-Jun-15 03:00N 44°39' W 001°09'0 0.0
2018-Jun-15 02:30N 44°39' W 001°09'0 0.0
2018-Jun-15 02:00N 44°39' W 001°09'0 0.0
2018-Jun-15 01:30N 44°39' W 001°09'0 0.0
2018-Jun-15 01:00N 44°39' W 001°09'0 0.0
2018-Jun-15 00:30N 44°39' W 001°09'0 0.0
2018-Jun-15 00:00N 44°39' W 001°09'0 0.0
2018-Jun-14 23:30N 44°39' W 001°09'0 0.0
2018-Jun-14 23:01N 44°39' W 001°09'0 0.0
2018-Jun-14 22:30N 44°39' W 001°09'0 0.0
2018-Jun-14 22:00N 44°39' W 001°09'0 0.0
2018-Jun-14 21:30N 44°39' W 001°09'0 0.0
2018-Jun-14 21:00N 44°39' W 001°09'0 0.0
2018-Jun-14 20:30N 44°39' W 001°09'0 0.0
2018-Jun-14 20:00N 44°39' W 001°09'0 0.0
2018-Jun-14 19:30N 44°39' W 001°09'0 0.0
2018-Jun-14 19:01N 44°39' W 001°09'0 0.0
2018-Jun-14 18:31N 44°39' W 001°09'0 0.1
2018-Jun-14 17:54N 44°39' W 001°09'0 0.0
2018-Jun-14 17:29N 44°39' W 001°09'0 0.1
2018-Jun-14 17:00N 44°39' W 001°09'0 0.0
2018-Jun-14 16:30N 44°39' W 001°09'0 0.0
2018-Jun-14 16:00N 44°39' W 001°09'0 0.0
2018-Jun-14 15:30N 44°39' W 001°09'0 0.0
2018-Jun-14 15:00N 44°39' W 001°09'0 0.0
2018-Jun-14 14:30N 44°39' W 001°09'0 0.0
2018-Jun-14 14:00N 44°39' W 001°09'0 0.0
2018-Jun-14 13:30N 44°39' W 001°09'0 0.0
2018-Jun-14 13:00N 44°39' W 001°09'0 0.0
2018-Jun-14 12:30N 44°39' W 001°09'0 0.0
2018-Jun-14 12:00N 44°39' W 001°09'0 0.0
2018-Jun-14 11:30N 44°39' W 001°09'0 0.0
2018-Jun-14 11:00N 44°39' W 001°09'0 0.0
2018-Jun-14 10:30N 44°39' W 001°09'0 0.0
2018-Jun-14 10:00N 44°39' W 001°09'0 0.0
2018-Jun-14 09:30N 44°39' W 001°09'0 0.0
2018-Jun-14 09:00N 44°39' W 001°09'0 0.0
2018-Jun-14 08:31N 44°39' W 001°09'0 0.0
2018-Jun-14 08:00N 44°39' W 001°09'0 0.0
2018-Jun-14 07:30N 44°39' W 001°09'0 0.0
2018-Jun-14 07:00N 44°39' W 001°09'0 0.0
2018-Jun-14 06:30N 44°39' W 001°09'0 0.0
2018-Jun-14 06:00N 44°39' W 001°09'0 0.0
2018-Jun-14 05:31N 44°39' W 001°09'0 0.0
2018-Jun-14 05:00N 44°39' W 001°09'0 0.0
2018-Jun-14 04:30N 44°39' W 001°09'0 0.0
2018-Jun-14 04:00N 44°39' W 001°09'0 0.0
2018-Jun-14 03:30N 44°39' W 001°09'0 0.0
2018-Jun-14 03:00N 44°39' W 001°09'0 0.0
2018-Jun-14 02:30N 44°39' W 001°09'0 0.0
2018-Jun-14 02:00N 44°39' W 001°09'0 0.0
2018-Jun-14 01:30N 44°39' W 001°09'0 0.0
2018-Jun-14 01:00N 44°39' W 001°09'0 0.0
2018-Jun-14 00:30N 44°39' W 001°09'0 0.0
2018-Jun-14 00:00N 44°39' W 001°09'0 0.0
2018-Jun-13 23:30N 44°39' W 001°09'0 0.0
2018-Jun-13 23:00N 44°39' W 001°09'0 0.0
2018-Jun-13 22:30N 44°39' W 001°09'0 0.0
2018-Jun-13 22:00N 44°39' W 001°09'0 0.0
2018-Jun-13 21:30N 44°39' W 001°09'0 0.0
2018-Jun-13 21:00N 44°39' W 001°09'0 0.0
2018-Jun-13 20:30N 44°39' W 001°09'0 0.0
2018-Jun-13 20:00N 44°39' W 001°09'0 0.0
2018-Jun-13 19:30N 44°39' W 001°09'0 0.0
2018-Jun-13 19:00N 44°39' W 001°09'0 0.0
2018-Jun-13 18:30N 44°39' W 001°09'0 0.0
2018-Jun-13 18:00N 44°39' W 001°09'0 0.0
2018-Jun-13 17:30N 44°39' W 001°09'0 0.0
2018-Jun-13 17:01N 44°39' W 001°09'0 0.0
2018-Jun-13 16:30N 44°39' W 001°09'0 0.0
2018-Jun-13 16:00N 44°39' W 001°09'0 0.0
2018-Jun-13 15:31N 44°39' W 001°09'0 0.0
2018-Jun-13 15:00N 44°39' W 001°09'4 7.0
2018-Jun-13 14:30N 44°39' W 001°14'5 9.8
2018-Jun-13 14:00N 44°34' W 001°16'4 8.6
2018-Jun-13 13:30N 44°34' W 001°22'4 8.8
2018-Jun-13 13:00N 44°34' W 001°28'4 9.0
2018-Jun-13 12:30N 44°34' W 001°34'5 9.0
2018-Jun-13 12:00N 44°35' W 001°41'11 0.3
2018-Jun-11 19:30N 44°39' W 001°55'10 0.7
2018-Jun-11 04:45N 44°29' W 001°57'0 0.9
2018-Jun-11 04:22N 44°29' W 001°58'1 0.5
2018-Jun-11 03:02N 44°30' W 001°57'0 0.7
2018-Jun-11 02:49N 44°30' W 001°57'2 0.3
2018-Jun-10 19:18N 44°28' W 001°56'1 1.4
2018-Jun-10 18:51N 44°28' W 001°57'0 1.4
2018-Jun-10 18:30N 44°28' W 001°58'1 1.5
2018-Jun-10 18:00N 44°28' W 001°59'1 1.5
2018-Jun-10 17:29N 44°28' W 001°60'0 1.0
2018-Jun-10 17:00N 44°28' W 001°60'4 8.1
2018-Jun-10 16:30N 44°32' W 001°59'4 8.1
2018-Jun-10 16:00N 44°36' W 002°01'7 1.2
2018-Jun-10 10:18N 44°31' W 001°54'1 1.8
2018-Jun-10 09:58N 44°31' W 001°54'1 1.6
2018-Jun-10 09:20N 44°30' W 001°54'1 1.6
2018-Jun-10 08:58N 44°29' W 001°54'1 1.6
2018-Jun-10 08:19N 44°28' W 001°54'2 1.7
2018-Jun-10 07:05N 44°26' W 001°54'0 0.7
2018-Jun-10 07:01N 44°26' W 001°54'4 7.2
2018-Jun-10 06:29N 44°27' W 001°59'2 4.2
2018-Jun-10 06:01N 44°28' W 001°57'2 3.5
2018-Jun-10 05:30N 44°30' W 001°57'5 8.4
2018-Jun-10 04:57N 44°34' W 001°57'4 8.2
2018-Jun-10 04:31N 44°38' W 001°57'4 8.0
2018-Jun-10 04:00N 44°42' W 001°57'1 1.8
2018-Jun-10 03:22N 44°43' W 001°58'0 0.8
2018-Jun-10 02:57N 44°43' W 001°58'8 1.3
2018-Jun-09 20:32N 44°35' W 001°57'0 7.9
2018-Jun-09 20:29N 44°35' W 001°57'4 8.0
2018-Jun-09 20:00N 44°31' W 001°57'2 3.3
2018-Jun-09 19:31N 44°29' W 001°57'1 1.0
2018-Jun-09 19:00N 44°29' W 001°57'1 1.1
2018-Jun-09 18:30N 44°28' W 001°57'1 1.1
2018-Jun-09 18:00N 44°27' W 001°57'1 1.6
2018-Jun-09 17:30N 44°27' W 001°57'2 4.3
2018-Jun-09 17:00N 44°29' W 001°58'5 8.0
2018-Jun-09 16:26N 44°33' W 001°58'2 2.7
2018-Jun-09 15:30N 44°36' W 001°57'1 1.8
2018-Jun-09 14:59N 44°37' W 001°58'1 1.8
2018-Jun-09 14:29N 44°38' W 001°58'1 1.8
2018-Jun-09 14:00N 44°39' W 001°58'1 1.7
2018-Jun-09 13:31N 44°39' W 001°58'1 0.6
2018-Jun-09 11:10N 44°39' W 001°59'1 1.5
2018-Jun-09 10:48N 44°40' W 001°59'1 1.6
2018-Jun-09 10:22N 44°40' W 001°60'1 1.6
2018-Jun-09 09:58N 44°41' W 002°00'2 1.6
2018-Jun-09 08:59N 44°42' W 002°01'1 1.6
2018-Jun-09 08:19N 44°43' W 002°01'1 1.6
2018-Jun-09 07:58N 44°44' W 002°02'1 1.5
2018-Jun-09 07:30N 44°44' W 002°02'3 6.6
2018-Jun-09 07:00N 44°42' W 001°59'3 6.5
2018-Jun-09 06:30N 44°39' W 001°58'3 7.0
2018-Jun-09 06:00N 44°35' W 001°57'4 6.9
2018-Jun-09 05:30N 44°32' W 001°57'3 6.8
2018-Jun-09 05:01N 44°28' W 001°57'2 4.7
2018-Jun-09 04:30N 44°26' W 001°56'0 0.6
2018-Jun-09 04:00N 44°26' W 001°56'0 0.6
2018-Jun-09 03:30N 44°26' W 001°56'0 0.4
2018-Jun-09 03:00N 44°26' W 001°56'0 0.3
2018-Jun-09 02:30N 44°25' W 001°56'0 0.2
2018-Jun-09 02:00N 44°25' W 001°56'0 0.1
2018-Jun-09 01:30N 44°25' W 001°56'0 0.1
2018-Jun-09 01:00N 44°25' W 001°56'0 0.3
2018-Jun-09 00:24N 44°26' W 001°56'0 0.3
2018-Jun-08 23:58N 44°26' W 001°56'0 0.3
2018-Jun-08 23:30N 44°26' W 001°56'0 0.3
2018-Jun-08 23:00N 44°26' W 001°56'0 0.0
2018-Jun-08 22:30N 44°26' W 001°56'0 0.8
2018-Jun-08 22:00N 44°26' W 001°55'2 3.5
2018-Jun-08 21:30N 44°28' W 001°56'0 0.9
2018-Jun-08 21:00N 44°28' W 001°56'0 0.9
2018-Jun-08 20:30N 44°27' W 001°56'1 1.2
2018-Jun-08 20:01N 44°28' W 001°57'0 0.8
2018-Jun-08 19:31N 44°28' W 001°57'0 0.8
2018-Jun-08 19:00N 44°29' W 001°57'1 1.4
2018-Jun-08 18:31N 44°29' W 001°56'2 4.2
2018-Jun-08 18:01N 44°31' W 001°56'4 7.0
2018-Jun-08 17:29N 44°35' W 001°54'3 6.2
2018-Jun-08 16:58N 44°38' W 001°54'10 6.8
2018-Jun-08 15:27N 44°31' W 002°05'0 1.0
2018-Jun-08 15:00N 44°32' W 002°05'1 1.4
2018-Jun-08 14:30N 44°33' W 002°05'1 1.4
2018-Jun-08 14:00N 44°33' W 002°05'1 1.4
2018-Jun-08 13:31N 44°34' W 002°05'3 5.6
2018-Jun-08 13:00N 44°33' W 002°02'5 8.6
2018-Jun-08 12:25N 44°32' W 001°55'3 6.0
2018-Jun-08 11:56N 44°29' W 001°54'3 6.2
2018-Jun-08 11:30N 44°26' W 001°54'3 5.5
2018-Jun-08 11:00N 44°27' W 001°58'1 2.4
2018-Jun-08 10:30N 44°28' W 001°59'1 1.7
2018-Jun-08 10:00N 44°28' W 001°59'1 1.8
2018-Jun-08 09:30N 44°29' W 001°59'1 1.9
2018-Jun-08 09:00N 44°30' W 001°59'1 1.8
2018-Jun-08 08:30N 44°31' W 001°59'1 1.8
2018-Jun-08 08:00N 44°32' W 001°59'1 1.7
2018-Jun-08 07:30N 44°33' W 001°59'3 5.2
2018-Jun-08 07:00N 44°32' W 001°56'1 1.8
2018-Jun-08 06:30N 44°32' W 001°56'1 1.9
2018-Jun-08 06:00N 44°33' W 001°56'0 0.8
2018-Jun-08 05:30N 44°33' W 001°56'4 8.1
2018-Jun-08 05:00N 44°29' W 001°56'1 2.4
2018-Jun-08 04:31N 44°28' W 001°57'3 6.4
2018-Jun-08 04:00N 44°31' W 001°59'0 0.2
2018-Jun-08 03:30N 44°31' W 001°59'0 0.4
2018-Jun-08 03:00N 44°31' W 001°59'0 0.4
2018-Jun-08 02:30N 44°31' W 001°59'0 0.3
2018-Jun-08 02:00N 44°31' W 001°58'0 0.3
2018-Jun-08 01:30N 44°31' W 001°58'  
Track history (hours):
 
Tides and Currents Weather Stations Pressure Air Temp Water Temp Dewpoint Dewpoint Depression Visibility Wind Speed Wind Dir Waves Ship Positions

F/V Si

Last reported at 2018-Jun-18 01:09 UTC. Time now 2018-Jun-18 02:10 UTC.
Position N 44°30' W 001°55'.

Type: Fishing. MMSI: 227442000.

Date/timePositionNaut miles runAvg speedWind from/ knotsBaromVisibWave heightAir tempDewpointWater temp
2018-Jun-18 01:09N 44°30' W 001°55'0 0.7
2018-Jun-18 00:59N 44°30' W 001°56'0 0.7
2018-Jun-18 00:27N 44°30' W 001°56'0 0.6
2018-Jun-18 00:01N 44°30' W 001°56'0 0.6
2018-Jun-17 23:27N 44°29' W 001°57'0 0.4
2018-Jun-17 23:00N 44°29' W 001°57'0 0.3
2018-Jun-17 22:30N 44°29' W 001°57'0 0.2
2018-Jun-17 21:54N 44°29' W 001°57'0 0.3
2018-Jun-17 21:23N 44°30' W 001°57'0 0.4
2018-Jun-17 20:15N 44°30' W 001°57'4 2.6
2018-Jun-17 18:54N 44°27' W 001°57'0 0.6
2018-Jun-17 18:28N 44°27' W 001°57'0 0.7
2018-Jun-17 17:57N 44°27' W 001°57'1 2.4
2018-Jun-17 17:25N 44°28' W 001°58'0 0.7
2018-Jun-17 16:51N 44°28' W 001°58'1 1.5
2018-Jun-17 16:28N 44°28' W 001°57'10 1.7
2018-Jun-17 10:47N 44°38' W 002°01'3 1.3
2018-Jun-17 08:37N 44°35' W 002°03'0 1.3
2018-Jun-17 08:30N 44°35' W 002°03'4 0.1
2018-Jun-16 06:20N 44°38' W 001°60'0 1.5
2018-Jun-16 06:00N 44°37' W 002°00'16 0.7
2018-Jun-15 09:01N 44°40' W 001°39'0 8.1
2018-Jun-15 09:00N 44°40' W 001°38'4 7.9
2018-Jun-15 08:30N 44°38' W 001°33'4 7.8
2018-Jun-15 08:00N 44°37' W 001°28'4 8.0
2018-Jun-15 07:30N 44°36' W 001°23'4 8.1
2018-Jun-15 07:00N 44°34' W 001°18'4 8.4
2018-Jun-15 06:30N 44°38' W 001°14'4 8.5
2018-Jun-15 06:00N 44°40' W 001°09'1 1.4
2018-Jun-15 05:31N 44°39' W 001°09'0 0.0
2018-Jun-15 05:00N 44°39' W 001°09'0 0.0
2018-Jun-15 04:31N 44°39' W 001°09'0 0.0
2018-Jun-15 04:00N 44°39' W 001°09'0 0.0
2018-Jun-15 03:30N 44°39' W 001°09'0 0.0
2018-Jun-15 03:00N 44°39' W 001°09'0 0.0
2018-Jun-15 02:30N 44°39' W 001°09'0 0.0
2018-Jun-15 02:00N 44°39' W 001°09'0 0.0
2018-Jun-15 01:30N 44°39' W 001°09'0 0.0
2018-Jun-15 01:00N 44°39' W 001°09'0 0.0
2018-Jun-15 00:30N 44°39' W 001°09'0 0.0
2018-Jun-15 00:00N 44°39' W 001°09'0 0.0
2018-Jun-14 23:30N 44°39' W 001°09'0 0.0
2018-Jun-14 23:01N 44°39' W 001°09'0 0.0
2018-Jun-14 22:30N 44°39' W 001°09'0 0.0
2018-Jun-14 22:00N 44°39' W 001°09'0 0.0
2018-Jun-14 21:30N 44°39' W 001°09'0 0.0
2018-Jun-14 21:00N 44°39' W 001°09'0 0.0
2018-Jun-14 20:30N 44°39' W 001°09'0 0.0
2018-Jun-14 20:00N 44°39' W 001°09'0 0.0
2018-Jun-14 19:30N 44°39' W 001°09'0 0.0
2018-Jun-14 19:01N 44°39' W 001°09'0 0.0
2018-Jun-14 18:31N 44°39' W 001°09'0 0.1
2018-Jun-14 17:54N 44°39' W 001°09'0 0.0
2018-Jun-14 17:29N 44°39' W 001°09'0 0.1
2018-Jun-14 17:00N 44°39' W 001°09'0 0.0
2018-Jun-14 16:30N 44°39' W 001°09'0 0.0
2018-Jun-14 16:00N 44°39' W 001°09'0 0.0
2018-Jun-14 15:30N 44°39' W 001°09'0 0.0
2018-Jun-14 15:00N 44°39' W 001°09'0 0.0
2018-Jun-14 14:30N 44°39' W 001°09'0 0.0
2018-Jun-14 14:00N 44°39' W 001°09'0 0.0
2018-Jun-14 13:30N 44°39' W 001°09'0 0.0
2018-Jun-14 13:00N 44°39' W 001°09'0 0.0
2018-Jun-14 12:30N 44°39' W 001°09'0 0.0
2018-Jun-14 12:00N 44°39' W 001°09'0 0.0
2018-Jun-14 11:30N 44°39' W 001°09'0 0.0
2018-Jun-14 11:00N 44°39' W 001°09'0 0.0
2018-Jun-14 10:30N 44°39' W 001°09'0 0.0
2018-Jun-14 10:00N 44°39' W 001°09'0 0.0
2018-Jun-14 09:30N 44°39' W 001°09'0 0.0
2018-Jun-14 09:00N 44°39' W 001°09'0 0.0
2018-Jun-14 08:31N 44°39' W 001°09'0 0.0
2018-Jun-14 08:00N 44°39' W 001°09'0 0.0
2018-Jun-14 07:30N 44°39' W 001°09'0 0.0
2018-Jun-14 07:00N 44°39' W 001°09'0 0.0
2018-Jun-14 06:30N 44°39' W 001°09'0 0.0
2018-Jun-14 06:00N 44°39' W 001°09'0 0.0
2018-Jun-14 05:31N 44°39' W 001°09'0 0.0
2018-Jun-14 05:00N 44°39' W 001°09'0 0.0
2018-Jun-14 04:30N 44°39' W 001°09'0 0.0
2018-Jun-14 04:00N 44°39' W 001°09'0 0.0
2018-Jun-14 03:30N 44°39' W 001°09'0 0.0
2018-Jun-14 03:00N 44°39' W 001°09'0 0.0
2018-Jun-14 02:30N 44°39' W 001°09'0 0.0
2018-Jun-14 02:00N 44°39' W 001°09'0 0.0
2018-Jun-14 01:30N 44°39' W 001°09'0 0.0
2018-Jun-14 01:00N 44°39' W 001°09'0 0.0
2018-Jun-14 00:30N 44°39' W 001°09'0 0.0
2018-Jun-14 00:00N 44°39' W 001°09'0 0.0
2018-Jun-13 23:30N 44°39' W 001°09'0 0.0
2018-Jun-13 23:00N 44°39' W 001°09'0 0.0
2018-Jun-13 22:30N 44°39' W 001°09'0 0.0
2018-Jun-13 22:00N 44°39' W 001°09'0 0.0
2018-Jun-13 21:30N 44°39' W 001°09'0 0.0
2018-Jun-13 21:00N 44°39' W 001°09'0 0.0
2018-Jun-13 20:30N 44°39' W 001°09'0 0.0
2018-Jun-13 20:00N 44°39' W 001°09'0 0.0
2018-Jun-13 19:30N 44°39' W 001°09'0 0.0
2018-Jun-13 19:00N 44°39' W 001°09'0 0.0
2018-Jun-13 18:30N 44°39' W 001°09'0 0.0
2018-Jun-13 18:00N 44°39' W 001°09'0 0.0
2018-Jun-13 17:30N 44°39' W 001°09'0 0.0
2018-Jun-13 17:01N 44°39' W 001°09'0 0.0
2018-Jun-13 16:30N 44°39' W 001°09'0 0.0
2018-Jun-13 16:00N 44°39' W 001°09'0 0.0
2018-Jun-13 15:31N 44°39' W 001°09'0 0.0
2018-Jun-13 15:00N 44°39' W 001°09'4 7.0
2018-Jun-13 14:30N 44°39' W 001°14'5 9.8
2018-Jun-13 14:00N 44°34' W 001°16'4 8.6
2018-Jun-13 13:30N 44°34' W 001°22'4 8.8
2018-Jun-13 13:00N 44°34' W 001°28'4 9.0
2018-Jun-13 12:30N 44°34' W 001°34'5 9.0
2018-Jun-13 12:00N 44°35' W 001°41'11 0.3
2018-Jun-11 19:30N 44°39' W 001°55'10 0.7
2018-Jun-11 04:45N 44°29' W 001°57'0 0.9
2018-Jun-11 04:22N 44°29' W 001°58'1 0.5
2018-Jun-11 03:02N 44°30' W 001°57'0 0.7
2018-Jun-11 02:49N 44°30' W 001°57'2 0.3
2018-Jun-10 19:18N 44°28' W 001°56'1 1.4
2018-Jun-10 18:51N 44°28' W 001°57'0 1.4
2018-Jun-10 18:30N 44°28' W 001°58'1 1.5
2018-Jun-10 18:00N 44°28' W 001°59'1 1.5
2018-Jun-10 17:29N 44°28' W 001°60'0 1.0
2018-Jun-10 17:00N 44°28' W 001°60'4 8.1
2018-Jun-10 16:30N 44°32' W 001°59'4 8.1
2018-Jun-10 16:00N 44°36' W 002°01'7 1.2
2018-Jun-10 10:18N 44°31' W 001°54'1 1.8
2018-Jun-10 09:58N 44°31' W 001°54'1 1.6
2018-Jun-10 09:20N 44°30' W 001°54'1 1.6
2018-Jun-10 08:58N 44°29' W 001°54'1 1.6
2018-Jun-10 08:19N 44°28' W 001°54'2 1.7
2018-Jun-10 07:05N 44°26' W 001°54'0 0.7
2018-Jun-10 07:01N 44°26' W 001°54'4 7.2
2018-Jun-10 06:29N 44°27' W 001°59'2 4.2
2018-Jun-10 06:01N 44°28' W 001°57'2 3.5
2018-Jun-10 05:30N 44°30' W 001°57'5 8.4
2018-Jun-10 04:57N 44°34' W 001°57'4 8.2
2018-Jun-10 04:31N 44°38' W 001°57'4 8.0
2018-Jun-10 04:00N 44°42' W 001°57'1 1.8
2018-Jun-10 03:22N 44°43' W 001°58'0 0.8
2018-Jun-10 02:57N 44°43' W 001°58'8 1.3
2018-Jun-09 20:32N 44°35' W 001°57'0 7.9
2018-Jun-09 20:29N 44°35' W 001°57'4 8.0
2018-Jun-09 20:00N 44°31' W 001°57'2 3.3
2018-Jun-09 19:31N 44°29' W 001°57'1 1.0
2018-Jun-09 19:00N 44°29' W 001°57'1 1.1
2018-Jun-09 18:30N 44°28' W 001°57'1 1.1
2018-Jun-09 18:00N 44°27' W 001°57'1 1.6
2018-Jun-09 17:30N 44°27' W 001°57'2 4.3
2018-Jun-09 17:00N 44°29' W 001°58'5 8.0
2018-Jun-09 16:26N 44°33' W 001°58'2 2.7
2018-Jun-09 15:30N 44°36' W 001°57'1 1.8
2018-Jun-09 14:59N 44°37' W 001°58'1 1.8
2018-Jun-09 14:29N 44°38' W 001°58'1 1.8
2018-Jun-09 14:00N 44°39' W 001°58'1 1.7
2018-Jun-09 13:31N 44°39' W 001°58'1 0.6
2018-Jun-09 11:10N 44°39' W 001°59'1 1.5
2018-Jun-09 10:48N 44°40' W 001°59'1 1.6
2018-Jun-09 10:22N 44°40' W 001°60'1 1.6
2018-Jun-09 09:58N 44°41' W 002°00'2 1.6
2018-Jun-09 08:59N 44°42' W 002°01'1 1.6
2018-Jun-09 08:19N 44°43' W 002°01'1 1.6
2018-Jun-09 07:58N 44°44' W 002°02'1 1.5
2018-Jun-09 07:30N 44°44' W 002°02'3 6.6
2018-Jun-09 07:00N 44°42' W 001°59'3 6.5
2018-Jun-09 06:30N 44°39' W 001°58'3 7.0
2018-Jun-09 06:00N 44°35' W 001°57'4 6.9
2018-Jun-09 05:30N 44°32' W 001°57'3 6.8
2018-Jun-09 05:01N 44°28' W 001°57'2 4.7
2018-Jun-09 04:30N 44°26' W 001°56'0 0.6
2018-Jun-09 04:00N 44°26' W 001°56'0 0.6
2018-Jun-09 03:30N 44°26' W 001°56'0 0.4
2018-Jun-09 03:00N 44°26' W 001°56'0 0.3
2018-Jun-09 02:30N 44°25' W 001°56'0 0.2
2018-Jun-09 02:00N 44°25' W 001°56'0 0.1
2018-Jun-09 01:30N 44°25' W 001°56'0 0.1
2018-Jun-09 01:00N 44°25' W 001°56'0 0.3
2018-Jun-09 00:24N 44°26' W 001°56'0 0.3
2018-Jun-08 23:58N 44°26' W 001°56'0 0.3
2018-Jun-08 23:30N 44°26' W 001°56'0 0.3
2018-Jun-08 23:00N 44°26' W 001°56'0 0.0
2018-Jun-08 22:30N 44°26' W 001°56'0 0.8
2018-Jun-08 22:00N 44°26' W 001°55'2 3.5
2018-Jun-08 21:30N 44°28' W 001°56'0 0.9
2018-Jun-08 21:00N 44°28' W 001°56'0 0.9
2018-Jun-08 20:30N 44°27' W 001°56'1 1.2
2018-Jun-08 20:01N 44°28' W 001°57'0 0.8
2018-Jun-08 19:31N 44°28' W 001°57'0 0.8
2018-Jun-08 19:00N 44°29' W 001°57'1 1.4
2018-Jun-08 18:31N 44°29' W 001°56'2 4.2
2018-Jun-08 18:01N 44°31' W 001°56'4 7.0
2018-Jun-08 17:29N 44°35' W 001°54'3 6.2
2018-Jun-08 16:58N 44°38' W 001°54'10 6.8
2018-Jun-08 15:27N 44°31' W 002°05'0 1.0
2018-Jun-08 15:00N 44°32' W 002°05'1 1.4
2018-Jun-08 14:30N 44°33' W 002°05'1 1.4
2018-Jun-08 14:00N 44°33' W 002°05'1 1.4
2018-Jun-08 13:31N 44°34' W 002°05'3 5.6
2018-Jun-08 13:00N 44°33' W 002°02'5 8.6
2018-Jun-08 12:25N 44°32' W 001°55'3 6.0
2018-Jun-08 11:56N 44°29' W 001°54'3 6.2
2018-Jun-08 11:30N 44°26' W 001°54'3 5.5
2018-Jun-08 11:00N 44°27' W 001°58'1 2.4
2018-Jun-08 10:30N 44°28' W 001°59'1 1.7
2018-Jun-08 10:00N 44°28' W 001°59'1 1.8
2018-Jun-08 09:30N 44°29' W 001°59'1 1.9
2018-Jun-08 09:00N 44°30' W 001°59'1 1.8
2018-Jun-08 08:30N 44°31' W 001°59'1 1.8
2018-Jun-08 08:00N 44°32' W 001°59'1 1.7
2018-Jun-08 07:30N 44°33' W 001°59'3 5.2
2018-Jun-08 07:00N 44°32' W 001°56'1 1.8
2018-Jun-08 06:30N 44°32' W 001°56'1 1.9
2018-Jun-08 06:00N 44°33' W 001°56'0 0.8
2018-Jun-08 05:30N 44°33' W 001°56'4 8.1
2018-Jun-08 05:00N 44°29' W 001°56'1 2.4
2018-Jun-08 04:31N 44°28' W 001°57'3 6.4
2018-Jun-08 04:00N 44°31' W 001°59'0 0.2
2018-Jun-08 03:30N 44°31' W 001°59'0 0.4
2018-Jun-08 03:00N 44°31' W 001°59'0 0.4
2018-Jun-08 02:30N 44°31' W 001°59'0 0.3
2018-Jun-08 02:00N 44°31' W 001°58'0 0.3
2018-Jun-08 01:30N 44°31' W 001°58'  

Dump ship's entire track history